createdAt,value
2022-11-16T00:00:21.587Z,98856
2022-11-16T00:06:10.347Z,98855
2022-11-16T00:11:59.278Z,98848
2022-11-16T00:17:48.133Z,98850
2022-11-16T00:23:38.667Z,98846
2022-11-16T00:29:28.352Z,98843
2022-11-16T00:35:18.612Z,98839
2022-11-16T00:41:08.497Z,98833
2022-11-16T00:46:58.522Z,98831
2022-11-16T00:52:50.558Z,98829
2022-11-16T00:58:40.844Z,98832
2022-11-16T01:04:33.249Z,98831
2022-11-16T01:10:24.968Z,98836
2022-11-16T01:16:15.809Z,98828
2022-11-16T01:22:06.158Z,98830
2022-11-16T01:27:58.589Z,98835
2022-11-16T01:33:48.296Z,98831
2022-11-16T01:40:44.735Z,98828
2022-11-16T01:46:33.525Z,98837
2022-11-16T01:52:24.197Z,98844
2022-11-16T01:58:14.400Z,98847
2022-11-16T02:04:05.658Z,98843
2022-11-16T02:09:56.205Z,98842
2022-11-16T02:15:46.925Z,98842
2022-11-16T02:21:35.246Z,98842
2022-11-16T02:27:25.771Z,98821
2022-11-16T02:33:15.832Z,98815
2022-11-16T02:39:10.143Z,98810
2022-11-16T02:44:59.558Z,98802
2022-11-16T02:50:49.907Z,98804
2022-11-16T02:56:41.664Z,98788
2022-11-16T03:02:32.983Z,98772
2022-11-16T03:08:24.588Z,98757
2022-11-16T03:14:17.384Z,98778
2022-11-16T03:20:05.434Z,98793
2022-11-16T03:25:55.098Z,98790
2022-11-16T03:31:44.419Z,98796
2022-11-16T03:37:32.868Z,98797
2022-11-16T03:43:22.420Z,98816
2022-11-16T03:49:14.391Z,98812
2022-11-16T03:55:03.667Z,98829
2022-11-16T04:00:54.041Z,98828
2022-11-16T04:06:43.824Z,98829
2022-11-16T04:12:34.835Z,98828
2022-11-16T04:18:36.478Z,98820
2022-11-16T04:31:17.441Z,98832
2022-11-16T04:37:11.641Z,98839
2022-11-16T04:43:37.865Z,98860
2022-11-16T05:02:28.230Z,98862
2022-11-16T05:15:18.259Z,98852
2022-11-16T05:21:43.676Z,98869
2022-11-16T05:27:54.158Z,98871
2022-11-16T05:33:57.270Z,98868
2022-11-16T05:45:55.031Z,98877
2022-11-16T05:51:46.680Z,98873
2022-11-16T05:58:06.051Z,98887
2022-11-16T06:04:05.560Z,98887
2022-11-16T06:10:05.611Z,98896
2022-11-16T06:15:58.142Z,98911
2022-11-16T06:21:52.524Z,98910
2022-11-16T06:27:45.784Z,98922
2022-11-16T06:33:37.844Z,98938
2022-11-16T06:39:49.602Z,98940
2022-11-16T06:45:48.594Z,98950
2022-11-16T06:51:42.680Z,98959
2022-11-16T06:57:37.837Z,98951
2022-11-16T07:03:42.475Z,98955
2022-11-16T07:09:39.523Z,98966
2022-11-16T07:15:48.317Z,98973
2022-11-16T07:21:53.561Z,98989
2022-11-16T07:27:58.329Z,98997
2022-11-16T07:34:15.510Z,99008
2022-11-16T07:40:22.344Z,99012
2022-11-16T07:59:05.712Z,99038
2022-11-16T08:11:19.320Z,99061
2022-11-16T08:42:05.354Z,99083
2022-11-16T08:54:19.527Z,99082
2022-11-16T09:07:19.581Z,99100
2022-11-16T09:13:28.087Z,99097
2022-11-16T09:19:36.827Z,99092
2022-11-16T09:26:01.602Z,99089
2022-11-16T09:32:15.647Z,99095
2022-11-16T09:45:02.424Z,99102
2022-11-16T09:51:08.507Z,99100
2022-11-16T09:57:16.779Z,99099
2022-11-16T10:03:24.741Z,99091
2022-11-16T10:09:43.914Z,99083
2022-11-16T10:15:50.720Z,99087
2022-11-16T10:21:42.412Z,99084
2022-11-16T10:27:42.189Z,99083
2022-11-16T10:33:36.605Z,99077
2022-11-16T10:39:29.980Z,99067
2022-11-16T10:45:21.049Z,99056
2022-11-16T10:51:14.356Z,99058
2022-11-16T10:57:09.605Z,99056
2022-11-16T11:02:59.634Z,99043
2022-11-16T11:08:51.820Z,99042
2022-11-16T11:14:44.286Z,99037
2022-11-16T11:20:34.967Z,99035
2022-11-16T11:26:39.441Z,99031
2022-11-16T11:32:29.993Z,99021
2022-11-16T11:38:21.048Z,99015
2022-11-16T11:44:13.793Z,99013
2022-11-16T11:50:05.796Z,98998
2022-11-16T11:55:55.503Z,98980
2022-11-16T12:01:46.593Z,98969
2022-11-16T12:07:37.317Z,98973
2022-11-16T12:13:28.239Z,98959
2022-11-16T12:19:19.768Z,98965
2022-11-16T12:25:13.584Z,98967
2022-11-16T12:31:05.095Z,98954
2022-11-16T12:36:55.849Z,98948
2022-11-16T12:42:46.752Z,98948
2022-11-16T12:48:39.193Z,98954
2022-11-16T12:54:31.770Z,98934
2022-11-16T13:00:22.397Z,98934
2022-11-16T13:06:19.675Z,98940
2022-11-16T13:12:16.003Z,98931
2022-11-16T13:18:09.392Z,98924
2022-11-16T13:24:05.549Z,98924
2022-11-16T13:30:13.370Z,98920
2022-11-16T13:36:16.674Z,98907
2022-11-16T13:42:15.736Z,98908
2022-11-16T13:48:17.455Z,98903
2022-11-16T13:55:03.696Z,98890
2022-11-16T14:07:18.572Z,98900
2022-11-16T14:13:19.523Z,98901
2022-11-16T14:19:26.043Z,98886
2022-11-16T14:25:33.955Z,98889
2022-11-16T14:31:28.126Z,98886
2022-11-16T14:37:58.007Z,98880
2022-11-16T14:43:51.036Z,98887
2022-11-16T14:49:48.051Z,98888
2022-11-16T14:55:39.020Z,98876
2022-11-16T15:56:10.695Z,98818
2022-11-16T16:02:36.538Z,98812
2022-11-16T16:08:32.462Z,98817
2022-11-16T18:13:48.103Z,98705
2022-11-16T18:31:32.314Z,98707
2022-11-16T18:49:31.169Z,98702
2022-11-16T18:56:45.253Z,98701
2022-11-16T19:02:33.185Z,98678
2022-11-16T19:08:24.185Z,98680
2022-11-16T19:14:12.308Z,98675
2022-11-16T19:20:00.467Z,98662
2022-11-16T19:25:51.724Z,98663
2022-11-16T19:31:44.113Z,98673
2022-11-16T19:37:35.153Z,98672
2022-11-16T19:43:25.595Z,98664
2022-11-16T19:49:23.091Z,98672
2022-11-16T19:55:12.949Z,98667
2022-11-16T20:01:02.659Z,98656
2022-11-16T20:06:53.178Z,98651
2022-11-16T20:12:43.185Z,98625
2022-11-16T20:18:33.568Z,98603
2022-11-16T20:24:23.636Z,98597
2022-11-16T20:30:14.419Z,98578
2022-11-16T20:36:03.511Z,98559
2022-11-16T20:41:52.447Z,98569
2022-11-16T20:47:43.613Z,98571
2022-11-16T20:53:34.547Z,98565
2022-11-16T20:59:27.393Z,98555
2022-11-16T21:05:19.273Z,98541
2022-11-16T21:11:09.193Z,98545
2022-11-16T21:16:58.993Z,98527
2022-11-16T21:22:49.622Z,98525
2022-11-16T21:28:39.326Z,98508
2022-11-16T21:34:28.769Z,98480
2022-11-16T21:40:25.409Z,98467
2022-11-16T21:46:17.676Z,98474
2022-11-16T21:52:07.994Z,98457
2022-11-16T21:57:56.356Z,98457
2022-11-16T22:03:45.177Z,98455
2022-11-16T22:09:36.453Z,98441
2022-11-16T22:15:30.155Z,98439
2022-11-16T22:21:20.583Z,98426
2022-11-16T22:27:12.698Z,98409
2022-11-16T22:33:02.140Z,98396
2022-11-16T22:38:53.357Z,98387
2022-11-16T22:44:43.035Z,98376
2022-11-16T22:50:33.733Z,98364
2022-11-16T22:56:27.731Z,98349
2022-11-16T23:02:20.224Z,98340
2022-11-16T23:08:10.973Z,98318
2022-11-16T23:14:04.152Z,98307
2022-11-16T23:19:54.710Z,98292
2022-11-16T23:25:43.257Z,98281
2022-11-16T23:31:32.644Z,98268
2022-11-16T23:37:21.257Z,98240
2022-11-16T23:43:10.980Z,98224
2022-11-16T23:49:01.422Z,98220
2022-11-16T23:54:53.388Z,98189
